Time;durP1;ratioP1;P1;durP2;ratioP2;P2;SDS_P1;SDS_P2;PMS_P1;PMS_P2;Temp;Humidity;BMP_temperature;BMP_pressure;BME280_temperature;BME280_humidity;BME280_pressure;Samples;Min_cycle;Max_cycle;Signal;HPM_P1;HPM_P2
2022/06/16 00:00:20;;;;;;;5.60;3.42;;;;;;;22.56;38.48;101942.63;5033090;28;20072;-77
2022/06/16 00:02:49;;;;;;;7.88;4.68;;;;;;;22.53;38.38;101946.16;5033174;28;20101;-78
2022/06/16 00:05:19;;;;;;;6.25;3.72;;;;;;;22.56;38.57;101931.47;5033043;28;20033;-77
2022/06/16 00:07:45;;;;;;;;;;;;;;;22.51;38.69;101938.13;5033439;28;20022;-77
2022/06/16 00:10:10;;;;;;;8.98;4.13;;;;;;;22.60;38.21;101935.97;5033011;28;19913;-77
2022/06/16 00:12:36;;;;;;;7.10;4.05;;;;;;;22.58;38.29;101943.03;5033046;28;20033;-78
2022/06/16 00:15:04;;;;;;;7.50;3.90;;;;;;;22.66;38.35;101944.81;5032885;28;20033;-77
2022/06/16 00:17:29;;;;;;;5.88;3.42;;;;;;;22.65;38.32;101949.56;5015058;28;20049;-79
2022/06/16 00:19:55;;;;;;;6.10;3.85;;;;;;;22.63;38.26;101937.19;5032823;28;20025;-79
2022/06/16 00:22:22;;;;;;;4.50;3.80;;;;;;;22.65;38.31;101941.22;5032918;28;20462;-77
2022/06/16 00:24:48;;;;;;;9.95;3.58;;;;;;;22.67;38.18;101950.03;5032371;28;20037;-77
2022/06/16 00:27:13;;;;;;;6.50;3.65;;;;;;;22.61;38.66;101943.13;5032648;28;20487;-77
2022/06/16 00:29:39;;;;;;;8.82;4.35;;;;;;;22.62;38.64;101941.16;5032825;28;20033;-77
2022/06/16 00:32:05;;;;;;;6.47;4.20;;;;;;;22.65;38.62;101941.22;5032213;28;20033;-77
2022/06/16 00:34:31;;;;;;;5.95;3.58;;;;;;;22.69;38.25;101949.66;5032549;28;20044;-77
2022/06/16 00:36:57;;;;;;;5.70;4.10;;;;;;;22.68;38.62;101940.50;5014888;28;20491;-77
2022/06/16 00:39:22;;;;;;;6.97;3.78;;;;;;;22.70;38.37;101948.50;5032603;28;20415;-77
2022/06/16 00:41:48;;;;;;;6.18;3.88;;;;;;;22.68;38.49;101948.84;5032510;28;20037;-77
2022/06/16 00:44:18;;;;;;;8.88;4.13;;;;;;;22.58;38.71;101949.41;5032460;28;20404;-77
2022/06/16 00:46:43;;;;;;;;;;;;;;;22.50;38.87;101950.44;5032933;28;20021;-78
2022/06/16 00:49:12;;;;;;;5.85;4.28;;;;;;;22.52;38.71;101942.56;5031788;28;19917;-77
2022/06/16 00:51:52;;;;;;;7.88;4.53;;;;;;;22.45;38.73;101939.63;5032225;28;20033;-77
2022/06/16 00:54:40;;;;;;;6.00;4.50;;;;;;;22.42;39.08;101940.31;5032434;28;20087;-77
2022/06/16 00:57:13;;;;;;;6.57;3.60;;;;;;;22.35;39.08;101935.41;5032278;28;20396;-77
2022/06/16 00:59:40;;;;;;;6.15;4.03;;;;;;;22.38;38.96;101942.25;5032491;28;20048;-77
2022/06/16 01:02:06;;;;;;;8.18;4.07;;;;;;;22.40;38.98;101943.47;5032210;28;20057;-78
2022/06/16 01:07:19;;;;;;;7.75;4.82;;;;;;;22.29;39.01;101934.09;5036513;28;20028;-78
2022/06/16 01:09:44;;;;;;;13.20;4.63;;;;;;;22.34;38.78;101930.22;5018654;28;20029;-77
2022/06/16 01:15:39;;;;;;;6.60;4.43;;;;;;;22.24;39.04;101937.16;5036127;28;20032;-78
2022/06/16 01:18:33;;;;;;;6.78;4.03;;;;;;;22.20;39.37;101930.69;5018253;28;20041;-78
2022/06/16 01:21:28;;;;;;;7.63;4.75;;;;;;;22.11;39.29;101930.09;5025187;28;20117;-77
2022/06/16 01:23:57;;;;;;;5.68;4.30;;;;;;;22.11;39.39;101930.91;5017832;28;20053;-77
2022/06/16 01:26:28;;;;;;;5.72;4.03;;;;;;;22.08;39.59;101931.63;5035739;28;20028;-76
2022/06/16 01:29:23;;;;;;;7.05;4.18;;;;;;;22.07;39.49;101941.13;5035871;28;20029;-76
2022/06/16 01:32:11;;;;;;;7.22;4.05;;;;;;;21.86;39.50;101932.28;5018111;28;20074;-76
2022/06/16 01:34:52;;;;;;;5.82;3.97;;;;;;;21.71;39.99;101944.22;5035866;28;20032;-77
2022/06/16 01:37:53;;;;;;;6.57;4.97;;;;;;;21.73;39.86;101941.88;5035748;28;20030;-77
2022/06/16 01:40:31;;;;;;;9.15;5.28;;;;;;;21.77;39.46;101937.22;5035694;28;20021;-77
2022/06/16 01:43:11;;;;;;;9.98;4.93;;;;;;;21.77;39.89;101942.78;5035495;28;20113;-77
2022/06/16 01:45:39;;;;;;;;;;;;;;;21.59;40.31;101951.47;5036145;28;20472;-77
2022/06/16 01:48:08;;;;;;;8.32;4.88;;;;;;;21.66;40.06;101938.94;5017900;28;19952;-77
2022/06/16 01:50:40;;;;;;;6.18;5.28;;;;;;;21.66;40.25;101944.50;5035586;28;20036;-77
2022/06/16 01:53:16;;;;;;;7.55;4.97;;;;;;;21.63;40.37;101937.69;5035628;28;20049;-77
2022/06/16 01:55:50;;;;;;;7.38;5.13;;;;;;;21.69;40.31;101925.13;5035486;28;20025;-77
2022/06/16 01:58:28;;;;;;;6.03;4.53;;;;;;;21.77;40.25;101924.13;5035474;28;20532;-77
2022/06/16 02:00:59;;;;;;;6.43;4.88;;;;;;;21.79;40.08;101923.75;5035279;28;20028;-77
2022/06/16 02:03:34;;;;;;;6.00;4.72;;;;;;;21.82;40.28;101923.03;5035440;28;20029;-77
2022/06/16 02:06:24;;;;;;;9.13;5.22;;;;;;;22.01;39.84;101925.06;5035373;28;20407;-78
2022/06/16 02:08:59;;;;;;;10.57;5.63;;;;;;;21.94;39.94;101920.16;5016932;28;20045;-77
2022/06/16 02:11:31;;;;;;;7.03;5.47;;;;;;;21.93;40.19;101923.28;5017507;28;20030;-77
2022/06/16 02:14:11;;;;;;;7.90;5.43;;;;;;;21.87;40.34;101931.09;5034931;28;20060;-76
2022/06/16 02:16:38;;;;;;;;;;;;;;;21.78;40.58;101933.28;5016559;28;20041;-88
2022/06/16 02:19:09;;;;;;;6.60;4.90;;;;;;;21.86;40.05;101935.88;5035270;28;19963;-86
2022/06/16 02:21:38;;;;;;;7.68;5.85;;;;;;;21.90;40.16;101933.16;5035362;28;20033;-77
2022/06/16 02:24:06;;;;;;;7.93;5.78;;;;;;;21.84;40.38;101923.50;5035254;28;20025;-77
2022/06/16 02:26:32;;;;;;;7.57;5.10;;;;;;;21.91;40.35;101925.63;5035289;28;20086;-87
2022/06/16 02:29:01;;;;;;;10.68;5.55;;;;;;;21.94;40.36;101934.06;5035009;28;20033;-76
2022/06/16 02:31:36;;;;;;;8.70;5.47;;;;;;;21.95;40.50;101930.09;5034763;28;20029;-77
2022/06/16 02:34:12;;;;;;;8.25;5.50;;;;;;;21.95;40.52;101929.31;5017029;28;20121;-77
2022/06/16 02:36:56;;;;;;;8.00;5.85;;;;;;;22.04;40.33;101930.72;5034758;28;20483;-76
2022/06/16 02:39:43;;;;;;;11.45;6.13;;;;;;;22.04;40.77;101935.47;5034746;28;20025;-76
2022/06/16 02:42:23;;;;;;;9.43;5.22;;;;;;;22.16;40.50;101940.97;5016666;28;20368;-76
2022/06/16 02:45:04;;;;;;;8.57;5.45;;;;;;;22.16;40.45;101935.38;5034672;28;20053;-77
2022/06/16 02:47:54;;;;;;;8.38;4.95;;;;;;;22.20;40.58;101927.91;5034872;28;20100;-77
2022/06/16 02:50:44;;;;;;;9.57;5.60;;;;;;;22.20;40.46;101935.47;5034568;28;20082;-77
2022/06/16 02:53:45;;;;;;;6.82;5.13;;;;;;;22.14;40.63;101944.13;5016845;28;20037;-76
2022/06/16 02:56:26;;;;;;;7.90;4.85;;;;;;;22.03;40.61;101948.56;5017102;28;20049;-76
2022/06/16 02:58:57;;;;;;;10.30;5.32;;;;;;;22.01;40.92;101948.16;5034907;28;20029;-88
2022/06/16 03:01:24;;;;;;;8.25;4.85;;;;;;;22.06;40.75;101955.38;5034460;28;20032;-86
2022/06/16 03:04:06;;;;;;;6.60;5.55;;;;;;;21.95;41.52;101949.59;5034326;28;20033;-77
2022/06/16 03:06:32;;;;;;;9.32;5.55;;;;;;;22.08;40.84;101962.25;5034394;28;20051;-77
2022/06/16 03:08:58;;;;;;;9.75;5.55;;;;;;;22.07;40.77;101957.03;5034348;28;20116;-77
2022/06/16 03:11:24;;;;;;;8.73;5.53;;;;;;;22.12;40.86;101960.34;5034214;28;20051;-77
2022/06/16 03:13:50;;;;;;;8.43;5.68;;;;;;;22.17;40.87;101970.41;5034253;28;20029;-87
2022/06/16 03:16:16;;;;;;;6.13;5.18;;;;;;;22.21;40.71;101964.91;5033975;28;20088;-77
2022/06/16 03:18:41;;;;;;;7.35;5.53;;;;;;;22.23;40.75;101966.19;5033797;28;20134;-77
2022/06/16 03:21:07;;;;;;;8.38;5.72;;;;;;;22.28;41.07;101968.66;5034025;28;20168;-77
2022/06/16 03:23:33;;;;;;;6.57;5.35;;;;;;;22.37;40.79;101977.63;5034066;28;20476;-77
2022/06/16 03:26:00;;;;;;;6.85;5.43;;;;;;;22.50;40.59;101977.50;5033692;28;20053;-77
2022/06/16 03:28:25;;;;;;;8.63;6.07;;;;;;;22.55;40.77;101966.06;5033429;28;20037;-77
2022/06/16 03:30:52;;;;;;;10.02;6.72;;;;;;;22.50;40.72;101960.78;5015929;28;20443;-77
2022/06/16 03:33:18;;;;;;;9.65;5.90;;;;;;;22.50;40.95;101960.78;5033672;28;20030;-77
2022/06/16 03:35:44;;;;;;;10.02;6.97;;;;;;;22.49;41.14;101973.91;5033682;28;20030;-77
2022/06/16 03:38:15;;;;;;;6.95;5.57;;;;;;;22.55;40.87;101975.22;5033651;28;20035;-76
2022/06/16 03:40:41;;;;;;;8.98;6.22;;;;;;;22.54;41.10;101970.03;5033381;28;20025;-78
2022/06/16 03:43:08;;;;;;;13.20;7.13;;;;;;;22.55;40.91;101975.22;5033497;28;20390;-76
2022/06/16 03:45:34;;;;;;;9.43;5.90;;;;;;;22.49;41.20;101965.53;5033346;28;20026;-76
2022/06/16 03:48:00;;;;;;;9.95;6.38;;;;;;;22.42;41.35;101968.16;5033458;28;20030;-76
2022/06/16 03:50:26;;;;;;;7.88;6.00;;;;;;;22.34;41.46;101983.09;5033089;28;20083;-76
2022/06/16 03:52:52;;;;;;;11.75;6.05;;;;;;;22.19;41.76;101978.38;5033324;28;20502;-76
2022/06/16 03:55:17;;;;;;;10.65;6.20;;;;;;;22.20;41.93;101986.38;5033253;28;20025;-76
2022/06/16 03:57:45;;;;;;;11.13;7.22;;;;;;;22.21;41.96;101976.84;5032844;28;20029;-77
2022/06/16 04:00:13;;;;;;;10.02;6.28;;;;;;;22.31;41.61;101979.09;5033150;28;20033;-77
2022/06/16 04:02:38;;;;;;;10.07;6.63;;;;;;;22.34;41.80;101991.47;5032818;28;20041;-78
2022/06/16 04:05:07;;;;;;;9.07;6.50;;;;;;;22.35;41.53;101990.28;5033063;28;20391;-77
2022/06/16 04:07:36;;;;;;;7.87;6.03;;;;;;;22.37;42.02;101972.06;5033040;28;20422;-77
2022/06/16 04:10:03;;;;;;;13.55;6.53;;;;;;;22.45;41.72;101992.53;5032342;28;20393;-77
2022/06/16 04:12:29;;;;;;;8.75;6.72;;;;;;;22.44;41.77;101985.31;5032873;28;20037;-77
2022/06/16 04:14:55;;;;;;;7.28;5.95;;;;;;;22.51;41.63;101988.25;5032908;28;20054;-77
2022/06/16 04:17:20;;;;;;;9.18;6.35;;;;;;;22.56;41.84;101987.19;5032652;28;20088;-77
2022/06/16 04:22:30;;;;;;;12.60;6.40;;;;;;;22.41;42.11;101981.28;5032963;28;20051;-76
2022/06/16 04:24:56;;;;;;;16.08;6.75;;;;;;;22.53;41.71;101983.16;5030263;28;20041;-78
2022/06/16 04:27:22;;;;;;;6.18;5.20;;;;;;;22.63;41.87;101973.41;5032474;28;20025;-77
2022/06/16 04:29:47;;;;;;;9.18;5.80;;;;;;;22.60;41.88;101969.38;5032742;28;20025;-77
2022/06/16 04:32:13;;;;;;;7.82;5.90;;;;;;;22.60;41.72;101969.38;5032670;28;20407;-77
2022/06/16 04:34:39;;;;;;;23.75;6.72;;;;;;;22.52;41.82;101975.13;5032741;28;20077;-76
2022/06/16 04:37:05;;;;;;;12.73;5.75;;;;;;;22.55;41.89;101960.50;5032721;28;20055;-77
2022/06/16 04:39:30;;;;;;;12.35;6.13;;;;;;;22.48;42.05;101963.94;5032060;28;20036;-79
2022/06/16 04:41:56;;;;;;;12.45;7.13;;;;;;;22.42;42.08;101968.16;5032779;28;20029;-76
2022/06/16 04:44:22;;;;;;;7.90;5.82;;;;;;;22.46;42.17;101971.84;5032675;28;20112;-76
2022/06/16 04:46:47;;;;;;;23.65;9.05;;;;;;;22.40;42.41;101982.47;5032727;28;20587;-77
2022/06/16 04:49:13;;;;;;;12.43;7.30;;;;;;;22.39;42.50;101977.25;5032611;28;20442;-77
2022/06/16 04:51:38;;;;;;;12.63;6.18;;;;;;;22.43;42.45;101961.44;5032645;28;20021;-79
2022/06/16 04:54:04;;;;;;;9.00;6.07;;;;;;;22.47;42.75;101964.31;5032603;28;20033;-77
2022/06/16 04:56:29;;;;;;;11.25;5.90;;;;;;;22.39;42.65;101969.72;5032431;28;20030;-77
2022/06/16 04:58:55;;;;;;;7.75;6.15;;;;;;;22.45;42.86;101966.66;5032414;28;20033;-77
2022/06/16 05:01:21;;;;;;;19.70;6.75;;;;;;;22.48;42.80;101958.38;5031928;28;20454;-77
2022/06/16 05:03:47;;;;;;;8.55;6.53;;;;;;;22.55;42.91;101954.94;5031794;28;20060;-77
2022/06/16 05:06:12;;;;;;;6.72;5.30;;;;;;;22.59;42.46;101953.00;5032442;28;20096;-76
2022/06/16 05:08:38;;;;;;;8.93;6.55;;;;;;;22.65;42.76;101957.13;5032194;28;20078;-76
2022/06/16 05:11:04;;;;;;;16.42;6.88;;;;;;;22.60;42.75;101957.44;5026919;28;20120;-78
2022/06/16 05:13:30;;;;;;;14.93;6.20;;;;;;;22.65;42.76;101966.28;5015900;28;20024;-89
2022/06/16 05:15:55;;;;;;;12.60;6.07;;;;;;;22.63;43.05;101971.44;5020760;28;20120;-77
2022/06/16 05:18:21;;;;;;;9.15;6.05;;;;;;;22.65;43.29;101985.78;5026495;28;20018;-77
2022/06/16 05:20:47;;;;;;;11.90;6.75;;;;;;;22.78;42.81;101989.25;5018299;28;20635;-79
2022/06/16 05:23:12;;;;;;;8.10;5.72;;;;;;;22.90;42.67;101988.34;5020448;28;20035;-77
2022/06/16 05:25:40;;;;;;;7.93;5.60;;;;;;;22.84;43.15;101995.34;5020460;28;20037;-76
2022/06/16 05:28:07;;;;;;;10.43;6.10;;;;;;;22.90;43.13;101997.50;5020969;28;20488;-87
2022/06/16 05:30:33;;;;;;;10.30;5.63;;;;;;;23.01;43.01;101994.13;5023203;28;20055;-77
2022/06/16 05:32:59;;;;;;;9.98;6.30;;;;;;;23.15;42.92;102000.78;5000124;28;20038;-77
2022/06/16 05:35:25;;;;;;;11.40;6.57;;;;;;;23.29;42.98;101999.44;5024906;28;20037;-77
2022/06/16 05:37:50;;;;;;;10.40;7.28;;;;;;;23.34;42.97;102001.91;5020681;28;20030;-78
2022/06/16 05:40:16;;;;;;;9.93;6.70;;;;;;;23.38;43.04;101998.03;5022502;28;20091;-77
2022/06/16 05:42:42;;;;;;;8.90;6.00;;;;;;;23.40;42.89;102006.00;5017765;28;20041;-88
2022/06/16 05:45:09;;;;;;;6.78;5.30;;;;;;;23.48;42.87;102002.19;5022565;28;20029;-77
2022/06/16 05:47:37;;;;;;;8.30;6.20;;;;;;;23.43;43.04;101997.72;5019888;28;20387;-80
2022/06/16 05:50:03;;;;;;;9.50;6.32;;;;;;;23.42;43.47;101987.72;5020224;28;20049;-88
2022/06/16 05:52:29;;;;;;;7.20;6.00;;;;;;;23.43;43.35;101982.97;5029471;28;20129;-78
2022/06/16 05:54:55;;;;;;;8.35;6.40;;;;;;;23.38;43.49;101989.66;5026468;28;20100;-77
2022/06/16 05:57:21;;;;;;;9.35;6.53;;;;;;;23.53;43.73;101968.41;5031211;28;20017;-89
2022/06/16 05:59:46;;;;;;;15.75;5.90;;;;;;;23.74;43.13;101973.59;5027949;28;20093;-76
2022/06/16 06:02:18;;;;;;;11.82;5.78;;;;;;;23.80;43.61;101966.47;5033366;28;20116;-89
2022/06/16 06:04:45;;;;;;;9.27;5.57;;;;;;;23.97;43.04;101970.75;5006854;28;20030;-78
2022/06/16 06:07:11;;;;;;;9.50;5.10;;;;;;;24.08;43.39;101972.53;5026902;28;20017;-90
2022/06/16 06:16:25;;;;;;;17.90;5.18;;;;;;;24.26;43.12;101983.97;5022720;28;20079;-88
2022/06/16 06:18:20;;;;;;;17.75;5.20;;;;;;;24.48;42.82;101987.06;5035264;28;20160;-77
2022/06/16 06:20:46;;;;;;;9.95;3.55;;;;;;;24.62;42.25;101978.88;5031405;28;20033;-77
2022/06/16 06:23:12;;;;;;;6.15;3.05;;;;;;;24.70;42.22;101980.59;5026084;28;20030;-77
2022/06/16 06:25:38;;;;;;;11.90;3.35;;;;;;;24.79;42.36;101989.50;5035800;28;20408;-89
2022/06/16 06:28:04;;;;;;;10.10;3.65;;;;;;;24.85;42.21;101990.75;5012035;28;20120;-80
2022/06/16 06:30:31;;;;;;;9.55;4.18;;;;;;;24.80;42.34;101990.31;5034499;28;20033;-77
2022/06/16 06:32:58;;;;;;;11.02;3.95;;;;;;;25.00;41.99;101985.34;5027293;28;20036;-76
2022/06/16 06:35:24;;;;;;;7.72;3.45;;;;;;;25.22;41.28;101997.59;5025665;28;20032;-79
2022/06/16 06:37:51;;;;;;;6.00;3.20;;;;;;;25.26;41.30;101990.06;5028374;28;20021;-78
2022/06/16 06:40:37;;;;;;;5.10;2.75;;;;;;;25.37;40.77;101979.78;5026046;28;20049;-78
2022/06/16 06:43:03;;;;;;;8.30;3.53;;;;;;;25.41;40.87;101966.63;5015524;28;20125;-87
2022/06/16 06:45:29;;;;;;;25.90;5.38;;;;;;;25.59;40.09;101950.78;5034962;28;20029;-77
2022/06/16 06:47:56;;;;;;;10.55;3.38;;;;;;;25.46;40.13;101972.66;5025740;28;20036;-77
2022/06/16 06:50:25;;;;;;;7.55;4.18;;;;;;;25.54;40.49;101981.13;5024635;28;20021;-77
2022/06/16 06:52:51;;;;;;;6.80;3.60;;;;;;;25.71;40.11;101969.31;5024841;28;20060;-78
2022/06/16 06:55:18;;;;;;;8.98;4.22;;;;;;;25.69;40.30;101966.06;5007319;28;20120;-77
2022/06/16 06:57:45;;;;;;;8.05;3.50;;;;;;;25.65;40.37;101966.03;5022653;28;20449;-77
2022/06/16 07:00:13;;;;;;;17.58;4.65;;;;;;;25.93;39.07;101953.50;5024736;28;20025;-77
2022/06/16 07:02:39;;;;;;;4.75;2.70;;;;;;;26.05;39.25;101964.38;5021620;28;20113;-88
2022/06/16 07:05:06;;;;;;;6.47;3.22;;;;;;;26.09;38.95;101964.41;5021572;28;20025;-77
2022/06/16 07:07:33;;;;;;;9.27;3.03;;;;;;;26.36;38.37;101967.75;5020590;28;20028;-79
2022/06/16 07:09:59;;;;;;;10.93;3.85;;;;;;;26.36;38.44;101960.16;5022520;28;20056;-77
2022/06/16 07:12:25;;;;;;;8.30;2.53;;;;;;;26.37;38.49;101956.16;5007468;28;20025;-76
2022/06/16 07:14:51;;;;;;;6.43;2.80;;;;;;;26.58;38.36;101949.09;5022299;28;20033;-78
2022/06/16 07:17:20;;;;;;;7.70;3.40;;;;;;;26.76;37.92;101941.56;5026134;28;20535;-77
2022/06/16 07:19:47;;;;;;;6.57;2.95;;;;;;;26.78;38.11;101934.34;5029279;28;20025;-77
2022/06/16 07:22:12;;;;;;;30.90;7.07;;;;;;;26.77;38.18;101924.34;5019585;28;20091;-88
2022/06/16 07:24:38;;;;;;;8.43;4.40;;;;;;;26.82;38.23;101921.13;5023161;28;20101;-80
2022/06/16 07:27:04;;;;;;;8.05;4.53;;;;;;;26.96;37.99;101917.56;5021487;28;20022;-78
2022/06/16 07:29:31;;;;;;;9.02;4.43;;;;;;;26.99;37.99;101919.59;5029112;28;20030;-77
2022/06/16 07:31:57;;;;;;;10.43;4.03;;;;;;;27.12;37.83;101931.25;5024281;28;20088;-79
2022/06/16 07:34:23;;;;;;;9.27;4.38;;;;;;;27.09;37.52;101916.03;5022715;28;20051;-85
2022/06/16 07:36:49;;;;;;;6.93;3.15;;;;;;;27.19;37.26;101928.44;5033782;28;20053;-77
2022/06/16 07:39:15;;;;;;;10.73;5.28;;;;;;;27.26;36.99;101920.03;5033691;28;20072;-77
2022/06/16 07:41:40;;;;;;;7.22;3.80;;;;;;;27.26;37.29;101911.63;5024290;28;20033;-77
2022/06/16 07:44:13;;;;;;;10.40;4.32;;;;;;;27.56;36.79;101921.66;5014462;28;20030;-89
2022/06/16 07:46:44;;;;;;;7.72;3.75;;;;;;;27.43;36.86;101918.44;5021269;28;20037;-80
2022/06/16 07:49:15;;;;;;;8.40;4.47;;;;;;;27.48;36.79;101922.88;5026160;28;20093;-78
2022/06/16 07:51:42;;;;;;;6.78;3.50;;;;;;;27.55;36.51;101923.66;5024183;28;20037;-78
2022/06/16 07:54:08;;;;;;;6.25;3.28;;;;;;;27.69;36.15;101922.88;5024212;28;20543;-78
2022/06/16 07:56:34;;;;;;;5.65;3.28;;;;;;;28.07;35.28;101914.81;5024533;28;20118;-79
2022/06/16 07:58:59;;;;;;;6.20;3.97;;;;;;;28.17;35.11;101911.94;5024849;28;20101;-78
2022/06/16 08:01:25;;;;;;;9.10;5.50;;;;;;;28.20;35.50;101916.78;5021818;28;20033;-78
2022/06/16 08:03:50;;;;;;;10.85;6.18;;;;;;;28.36;35.57;101901.50;5021733;28;20022;-78
2022/06/16 08:06:19;;;;;;;13.10;10.63;;;;;;;28.13;36.19;101910.38;5020622;28;20034;-79
2022/06/16 08:08:45;;;;;;;11.53;9.73;;;;;;;28.15;36.22;101911.56;5028971;28;20056;-78
2022/06/16 08:13:58;;;;;;;10.52;6.88;;;;;;;27.99;36.42;101914.00;5021096;28;20045;-79
2022/06/16 08:16:24;;;;;;;10.88;6.40;;;;;;;27.81;36.21;101908.44;5012826;28;20132;-78
2022/06/16 08:18:50;;;;;;;8.25;5.90;;;;;;;27.92;36.00;101902.78;5018625;28;20025;-78
2022/06/16 08:21:16;;;;;;;95.43;13.85;;;;;;;27.82;36.00;101910.03;5015200;28;20412;-83
2022/06/16 08:23:42;;;;;;;12.55;5.28;;;;;;;27.92;35.97;101923.25;5020250;28;20053;-80
2022/06/16 08:26:09;;;;;;;5.60;4.28;;;;;;;27.95;35.98;101929.25;5028181;28;20033;-79
2022/06/16 08:28:38;;;;;;;7.68;5.10;;;;;;;27.92;35.94;101937.31;5016059;28;20409;-90
2022/06/16 08:31:05;;;;;;;8.80;5.55;;;;;;;27.96;35.98;101948.50;5013745;28;20042;-79
2022/06/16 08:33:30;;;;;;;8.45;5.53;;;;;;;28.08;35.95;101950.13;5013747;28;20029;-78
2022/06/16 08:35:56;;;;;;;19.00;7.68;;;;;;;27.91;36.13;101943.31;5015893;28;20065;-78
2022/06/16 08:38:21;;;;;;;8.50;5.70;;;;;;;27.75;36.49;101952.19;5013608;28;20388;-83
2022/06/16 08:41:11;;;;;;;6.78;4.90;;;;;;;27.80;36.29;101965.00;5014900;28;20048;-85
2022/06/16 08:43:46;;;;;;;11.73;5.90;;;;;;;27.73;36.20;101962.97;5020739;28;20483;-79
2022/06/16 08:46:15;;;;;;;6.22;4.97;;;;;;;27.90;36.32;101969.81;5022067;28;20026;-78
2022/06/16 08:48:58;;;;;;;10.38;5.22;;;;;;;27.85;36.23;101962.59;5024933;28;20030;-78
2022/06/16 08:51:42;;;;;;;7.97;4.30;;;;;;;28.12;35.77;101957.34;5020507;28;20029;-78
2022/06/16 08:54:32;;;;;;;6.90;4.25;;;;;;;28.29;35.23;101954.88;5016778;28;20500;-79
2022/06/16 08:57:23;;;;;;;;;;;;;;;28.14;35.51;101959.75;5022086;28;20041;-90
2022/06/16 09:00:18;;;;;;;8.23;5.20;;;;;;;28.18;35.09;101975.38;4994018;28;19940;-84
2022/06/16 09:03:03;;;;;;;6.82;4.40;;;;;;;27.97;35.41;101967.00;5003529;28;20050;-90
2022/06/16 09:05:43;;;;;;;7.35;4.93;;;;;;;27.99;34.98;101958.97;5012951;28;20055;-79
2022/06/16 09:08:43;;;;;;;9.27;4.53;;;;;;;28.27;34.78;101958.09;5010515;28;20557;-79
2022/06/16 09:11:36;;;;;;;11.82;4.90;;;;;;;28.42;34.54;101953.28;5011465;28;20034;-79
2022/06/16 09:14:18;;;;;;;9.15;4.30;;;;;;;28.33;34.81;101950.06;5011595;28;20057;-80
2022/06/16 09:17:08;;;;;;;6.22;4.30;;;;;;;28.46;35.10;101946.41;5011795;28;20065;-79
2022/06/16 09:19:33;;;;;;;;;;;;;;;28.55;34.85;101954.41;5012116;28;20575;-79
2022/06/16 09:22:08;;;;;;;7.25;3.83;;;;;;;28.74;34.72;101953.94;5010925;28;19996;-78
2022/06/16 09:24:52;;;;;;;6.03;3.55;;;;;;;28.79;34.62;101949.06;4993581;28;20105;-79
2022/06/16 09:27:25;;;;;;;4.57;3.42;;;;;;;28.84;34.43;101962.72;5014486;28;20033;-79
2022/06/16 09:29:58;;;;;;;6.80;4.22;;;;;;;28.60;35.11;101962.44;4997623;28;20061;-79
2022/06/16 09:32:44;;;;;;;7.38;4.80;;;;;;;28.45;35.54;101961.69;4997991;28;20037;-87
2022/06/16 09:35:18;;;;;;;22.50;5.53;;;;;;;27.96;36.50;101970.19;5016344;28;20026;-79
2022/06/16 09:37:57;;;;;;;7.18;3.58;;;;;;;27.91;36.65;101972.22;4998726;28;20487;-79
2022/06/16 09:40:33;;;;;;;8.15;4.55;;;;;;;27.83;36.61;101967.00;5016167;28;20058;-79
2022/06/16 09:43:14;;;;;;;9.25;5.22;;;;;;;28.26;35.67;101972.53;5016178;28;20459;-79
2022/06/16 09:45:50;;;;;;;6.53;4.35;;;;;;;28.23;35.76;101974.16;5016149;28;20053;-79
2022/06/16 09:48:26;;;;;;;9.07;5.07;;;;;;;28.10;36.00;101964.53;5016226;28;20026;-79
2022/06/16 09:51:16;;;;;;;12.75;5.00;;;;;;;28.16;35.81;101955.31;5016182;28;20022;-79
2022/06/16 09:53:47;;;;;;;8.35;3.80;;;;;;;28.24;35.91;101958.09;5015943;28;20033;-80
2022/06/16 09:56:29;;;;;;;6.63;4.18;;;;;;;28.16;36.18;101955.31;5015959;28;20022;-78
2022/06/16 09:59:00;;;;;;;7.50;3.97;;;;;;;28.23;35.97;101956.50;5015985;28;20057;-79
2022/06/16 10:01:34;;;;;;;5.88;3.42;;;;;;;28.19;36.02;101956.53;5015725;28;20124;-79
2022/06/16 10:04:04;;;;;;;3.63;3.00;;;;;;;28.29;36.00;101954.88;5015754;28;20387;-79
2022/06/16 10:07:21;;;;;;;9.85;4.15;;;;;;;28.30;36.07;101967.75;5015829;28;20105;-79
2022/06/16 10:09:49;;;;;;;5.82;3.15;;;;;;;28.36;36.29;101971.75;4981941;28;20496;-79
2022/06/16 10:12:18;;;;;;;5.20;3.38;;;;;;;28.54;36.00;101966.06;5015632;28;20021;-79
2022/06/16 10:14:56;;;;;;;9.45;3.67;;;;;;;28.70;36.17;101970.00;5015779;28;20025;-79
2022/06/16 10:17:23;;;;;;;12.30;3.42;;;;;;;28.65;36.17;101978.88;5015309;28;20046;-79
2022/06/16 10:19:51;;;;;;;9.25;3.40;;;;;;;28.68;36.00;101985.69;4998100;28;20041;-79
2022/06/16 10:22:22;;;;;;;15.82;4.38;;;;;;;28.59;36.28;101985.34;5015679;28;20104;-79
2022/06/16 10:24:56;;;;;;;10.02;3.92;;;;;;;28.49;36.36;101978.56;5015609;28;20366;-79
2022/06/16 10:27:26;;;;;;;7.25;3.55;;;;;;;28.68;35.97;101986.50;5015412;28;20030;-79
2022/06/16 10:29:55;;;;;;;7.95;3.80;;;;;;;28.63;36.29;101972.06;5016018;28;20071;-79
2022/06/16 10:32:44;;;;;;;9.60;3.40;;;;;;;28.56;36.28;101956.00;5015563;28;20065;-79
2022/06/16 10:35:19;;;;;;;8.45;3.30;;;;;;;28.31;36.83;101930.81;4997557;28;20064;-79
2022/06/16 10:37:50;;;;;;;4.97;2.45;;;;;;;28.46;36.44;101934.38;5014148;28;20030;-79
2022/06/16 10:40:30;;;;;;;5.72;2.38;;;;;;;28.50;36.84;101935.16;5015076;28;20029;-79
2022/06/16 10:43:03;;;;;;;10.77;3.75;;;;;;;28.56;36.61;101925.06;5015065;28;20030;-79
2022/06/16 10:45:33;;;;;;;11.25;3.47;;;;;;;28.63;36.52;101924.25;5015034;28;20087;-79
2022/06/16 10:48:06;;;;;;;6.63;3.33;;;;;;;28.75;36.20;101933.03;5014998;28;20056;-79
2022/06/16 10:50:39;;;;;;;9.20;3.15;;;;;;;28.77;36.33;101934.63;5015169;28;20057;-79
2022/06/16 10:53:25;;;;;;;7.72;2.92;;;;;;;28.93;35.91;101932.16;5014995;28;20388;-80
2022/06/16 10:56:01;;;;;;;14.50;3.83;;;;;;;29.08;35.68;101938.50;4997737;28;20034;-79
2022/06/16 10:58:30;;;;;;;14.38;3.42;;;;;;;29.05;36.03;101940.13;5015123;28;20026;-79
2022/06/16 11:01:30;;;;;;;10.63;3.87;;;;;;;29.20;35.47;101952.09;5014668;28;20045;-80
2022/06/16 11:04:17;;;;;;;7.57;2.85;;;;;;;28.99;35.69;101945.38;5011480;28;20389;-82
2022/06/16 11:06:49;;;;;;;6.68;2.70;;;;;;;28.80;36.16;101953.53;5013910;28;20105;-89
2022/06/16 11:09:27;;;;;;;21.38;5.35;;;;;;;28.75;36.15;101951.91;5014605;28;20030;-79
2022/06/16 11:11:59;;;;;;;12.65;3.63;;;;;;;28.79;35.91;101951.88;5014874;28;20076;-79
2022/06/16 11:14:39;;;;;;;5.60;3.17;;;;;;;28.56;36.20;101961.63;5014654;28;20056;-79
2022/06/16 11:17:10;;;;;;;13.05;3.60;;;;;;;28.46;36.45;101962.47;4996899;28;20050;-79
2022/06/16 11:19:46;;;;;;;7.28;3.83;;;;;;;28.15;36.81;101961.34;5014728;28;20365;-79
2022/06/16 11:22:41;;;;;;;9.55;3.38;;;;;;;28.32;36.66;101949.28;5014386;28;20034;-79
2022/06/16 11:25:30;;;;;;;9.55;3.92;;;;;;;28.45;36.51;101952.44;5012437;28;20037;-89
2022/06/16 11:28:01;;;;;;;11.13;3.97;;;;;;;28.51;36.47;101964.88;5014337;28;20026;-78
2022/06/16 11:30:40;;;;;;;12.27;3.67;;;;;;;28.45;36.27;101964.50;5014383;28;20026;-90
2022/06/16 11:34:06;;;;;;;7.72;3.10;;;;;;;28.60;36.18;101964.44;5014415;28;20030;-79
2022/06/16 11:36:26;;;;;;;13.00;3.38;;;;;;;28.68;36.24;101960.38;5013989;28;20069;-79
2022/06/16 11:39:02;;;;;;;11.23;3.90;;;;;;;28.57;36.26;101949.19;5014048;28;20506;-79
2022/06/16 11:41:29;;;;;;;13.98;4.13;;;;;;;28.64;36.04;101954.78;5013753;28;20034;-79
2022/06/16 11:44:02;;;;;;;10.68;3.63;;;;;;;28.87;35.81;101947.81;4996374;28;20025;-79
2022/06/16 11:46:38;;;;;;;7.65;3.47;;;;;;;28.65;36.60;101942.34;5013897;28;20036;-84
2022/06/16 11:49:30;;;;;;;6.57;2.75;;;;;;;28.87;36.11;101933.75;4995921;28;20026;-79
2022/06/16 11:51:58;;;;;;;10.32;3.25;;;;;;;29.02;35.62;101938.16;4996410;28;20183;-79
2022/06/16 11:54:45;;;;;;;12.43;3.60;;;;;;;29.14;35.41;101945.28;5013726;28;20061;-79
2022/06/16 11:57:26;;;;;;;9.93;3.75;;;;;;;29.23;35.35;101934.38;5013886;28;20095;-79
2022/06/16 11:59:58;;;;;;;6.80;2.72;;;;;;;29.25;35.43;101935.56;5013654;28;20026;-79
2022/06/16 12:02:57;;;;;;;7.90;2.88;;;;;;;29.10;35.51;101936.88;5013555;28;20055;-79